Terminal Aerodrome Forecast
Issued by NWS

Home | Current Version | Previous Version | Graphics & Text | Print | Product List | Glossary On
Versions: 1 2 3 4 5 6 7 8 9 10 11 12 13 14 15 16 17 18 19 20 21 22
427
FTUS42 KMHX 262320
TAFPGV
TAF
KPGV 262320Z 2700/2724 25010KT P6SM SCT070
     FM270300 22008KT P6SM SCT250
     FM271300 25008KT P6SM SCT250
     FM271900 22008KT P6SM VCTS SCT040CB BKN250
      AMD LTD TO CLD VIS AND WIND=

USA.gov is the U.S. government's official web portal to all federal, state and local government web resources and services.